Historyczne dane pomiarowe

Dodano dane terminowe – wersja testowa.

Dane z okresu 1951-2019

Wersja bazy: 1.34 [2019-03-16, lista zmian], aktualizacja planowana na 2019-04-15

Dane meteo z obszaru Polski uzyskane na podstawie danych udostępnionych przez Instytut Meteorologii i Gospodarki Wodnej – Państwowy Instytut Badawczy.

 

Wybierz Datę:    

       

TemperaturaWilgotnośćWiatrCiśnienieOpadyŚniegCzas trwania zjawisk
 Stacja t tx tn tng RH VA  wxwx mslp ppp RRR   cm mm wxwxwxwxwxwxwx
1961-08-14 13.5 19.4 8.8- 82.3- 1.0 1.7---- 0.0------------
1961-08-13 12.8 16.2 11.7- 93.0- 5.3 3.0---- 5.7------------
1961-08-12 18.4 24.4 14.9- 90.0- 6.0 2.0---- 20.6------------
1961-08-11 23.6 33.5 17.6- 73.0- 1.3 3.0---- 0.0------------
1961-08-10 24.1 30.5 18.5- 86.5- 1.0 1.7---- 0.0------------
1961-08-09 22.8 29.4 13.1- 81.0- 6.7 1.0---- 19.0------------
1961-08-08 18.6 23.0 17.3- 85.5- 3.3 3.3---- 0.0------------
1961-08-07 23.1 31.1 14.3- 72.5- 0.7 1.0---- 0.0------------
1961-08-06 24.3 31.0 13.3- 59.5- 0.0 1.3---- 0.0------------
1961-08-05 19.1 24.4 14.4- 72.5- 4.7 3.3---- 0.0------------
1961-08-04 17.0 21.4 10.4- 67.5- 3.3 1.3---- 0.0------------
1961-08-03 17.6 22.4 14.2- 83.3- 7.7 2.0---- 5.4------------
1961-08-02 18.9 26.3 7.0- 76.0- 0.3 1.3---- 0.0------------
1961-08-01 15.0 21.7 10.3- 74.3- 2.0 3.0---- 0.0------------
1961-07-31 13.3 16.0 10.3- 90.0- 8.0 5.0---- 9.0------------
1961-07-30 11.5 13.2 10.4- 95.0- 8.0 2.3---- 31.6------------
1961-07-29 13.8 19.8 11.9- 93.5- 8.0 1.3---- 21.5------------
1961-07-28 21.0 28.0 17.1- 72.0- 7.7 1.7---- 10.3------------
1961-07-27 22.4 27.6 14.0- 57.8- 3.0 3.7---- 0.0------------
1961-07-26 16.8 22.7 11.1- 67.0- 2.3 2.0---- 0.0------------
1961-07-25 13.5 16.3 10.5- 75.8- 7.7 1.7---- 0.0------------
1961-07-24 15.4 18.5 11.6- 70.8- 7.3 2.7---- 0.0------------
1961-07-23 16.2 20.6 10.9- 82.5- 7.7 1.3---- 0.0------------
1961-07-22 14.3 19.6 12.4- 84.3- 6.3 3.0---- 0.5------------
1961-07-21 15.6 20.2 9.8- 81.0- 6.0 4.0---- 2.6------------
1961-07-20 14.5 18.0 7.3- 90.5- 8.0 1.3---- 7.2------------
1961-07-19 15.5 20.6 8.3- 74.3- 7.7 1.7---- 2.9------------
1961-07-18 14.2 20.5 8.4- 78.3- 2.3 3.3---- 0.0------------
1961-07-17 16.4 22.2 13.7- 72.0- 4.0 3.3---- 2.2------------
1961-07-16 17.0 22.0 14.7- 75.8- 5.7 3.0---- 0.3------------
1961-07-15 19.3 24.8 11.0- 71.0- 5.0 1.7---- 3.1------------
1961-07-14 15.3 19.9 12.7- 60.5- 3.7 5.3---- 0.0------------
1961-07-13 20.7 28.0 12.7- 77.0- 4.3 2.3---- 7.3------------
1961-07-12 20.2 28.8 10.3- 77.3- 3.0 1.7---- 0.7------------
1961-07-11 16.4 21.5 10.1- 67.3- 1.3 2.0---- 0.0------------
1961-07-10 14.7 19.4 9.8- 80.0- 7.7 3.7---- 4.2------------
1961-07-09 14.9 22.5 6.8- 79.3- 3.0 3.3---- 3.3------------
1961-07-08 14.7 19.9 5.0- 72.8- 4.0 1.3---- 0.0------------
1961-07-07 12.4 18.1 10.0- 80.0- 5.0 2.3---- 0.0------------
1961-07-06 13.4 16.6 8.3- 68.5- 3.0 3.7---- 0.0------------
1961-07-05 14.3 21.0 12.0- 74.3- 5.7 3.0---- 0.0------------
1961-07-04 23.0 29.0 17.1- 61.0- 3.3 3.7---- 3.4------------
1961-07-03 22.5 30.4 10.0- 59.0- 0.0 1.3---- 0.0------------
1961-07-02 20.0 27.9 9.2- 71.5- 0.0 1.7---- 0.0------------
1961-07-01 18.9 26.1 10.8- 77.0- 0.3 1.3---- 0.0------------
1961-06-30 17.2 23.4 10.0- 74.0- 1.0 1.7---- 0.0------------
1961-06-29 15.6 21.2 7.6- 77.0- 3.7 3.0---- 0.0------------
1961-06-28 13.9 20.0 11.9- 84.5- 7.3 3.3---- 2.2------------
1961-06-27 23.6 32.9 12.4- 72.5- 2.7 1.3---- 14.0------------
1961-06-26 21.9 30.4 12.5- 78.5- 5.0 2.0---- 3.8------------
1961-06-25 22.5 29.5 9.4- 58.0- 0.0 1.3---- 0.0------------
1961-06-24 18.7 25.5 10.2- 69.5- 4.3 3.3---- 0.0------------
1961-06-23 18.5 23.9 16.1- 75.3- 3.3 2.7---- 0.0------------
1961-06-22 19.3 25.0 9.5- 64.8- 1.0 3.0---- 4.9------------
1961-06-21 16.5 24.4 4.5- 68.0- 0.3 1.7---- 0.0------------
1961-06-20 15.1 21.4 11.7- 70.8- 4.0 2.7---- 0.0------------
1961-06-19 20.5 28.4 15.4- 66.3- 2.7 3.3---- 0.0------------
1961-06-18 19.8 26.1 7.4- 61.3- 1.0 3.7---- 0.0------------
1961-06-17 15.9 22.7 5.5- 71.3- 0.0 2.7---- 0.0------------
1961-06-16 13.9 19.8 9.0- 72.0- 1.0 2.0---- 0.0------------
252.9 ms

 

Źródłem pochodzenia danych jest Instytut Meteorologii i Gospodarki Wodnej – Państwowy Instytut Badawczy. Dane Instytutu Meteorologii i Gospodarki Wodnej – Państwowego Instytutu Badawczego zostały przetworzone.

Dane źródłowe można odnaleźć na stronie https://dane.imgw.pl